createdAt,value
2022-08-17T00:02:26.216Z,22.55
2022-08-17T00:04:55.499Z,22.50
2022-08-17T00:07:23.535Z,22.29
2022-08-17T00:09:50.588Z,22.29
2022-08-17T00:12:44.420Z,22.15
2022-08-17T00:15:10.314Z,22.04
2022-08-17T00:17:38.399Z,21.82
2022-08-17T00:20:06.266Z,21.99
2022-08-17T00:22:36.293Z,22.16
2022-08-17T00:25:13.406Z,22.22
2022-08-17T00:27:40.672Z,21.93
2022-08-17T00:30:10.794Z,22.25
2022-08-17T00:33:16.083Z,22.34
2022-08-17T00:35:35.342Z,22.29
2022-08-17T00:38:04.283Z,22.43
2022-08-17T00:40:40.684Z,22.40
2022-08-17T00:43:32.174Z,22.57
2022-08-17T00:46:02.712Z,22.62
2022-08-17T00:48:30.859Z,22.63
2022-08-17T00:51:03.869Z,22.73
2022-08-17T00:53:33.951Z,22.64
2022-08-17T00:56:04.831Z,22.65
2022-08-17T00:58:36.212Z,22.61
2022-08-17T01:01:06.901Z,22.55
2022-08-17T01:03:37.488Z,22.49
2022-08-17T01:06:08.246Z,22.42
2022-08-17T01:08:38.337Z,22.27
2022-08-17T01:11:07.163Z,22.16
2022-08-17T01:13:41.213Z,22.12
2022-08-17T01:16:28.366Z,22.10
2022-08-17T01:19:00.149Z,22.05
2022-08-17T01:21:36.348Z,22.07
2022-08-17T01:24:03.717Z,22.04
2022-08-17T01:26:33.263Z,21.91
2022-08-17T01:29:03.324Z,21.78
2022-08-17T01:31:33.418Z,21.64
2022-08-17T01:34:02.135Z,21.41
2022-08-17T01:36:30.036Z,21.15
2022-08-17T01:38:57.197Z,20.96
2022-08-17T01:41:24.731Z,20.94
2022-08-17T01:43:57.213Z,20.90
2022-08-17T01:46:31.083Z,20.66
2022-08-17T01:48:58.667Z,20.85
2022-08-17T01:51:32.914Z,20.90
2022-08-17T01:54:10.654Z,20.94
2022-08-17T01:56:42.649Z,20.97
2022-08-17T01:59:11.251Z,20.79
2022-08-17T02:01:38.699Z,20.60
2022-08-17T02:04:08.164Z,20.42
2022-08-17T02:06:45.257Z,20.57
2022-08-17T02:09:23.314Z,20.17
2022-08-17T02:11:57.423Z,20.24
2022-08-17T02:14:25.882Z,20.21
2022-08-17T02:16:53.528Z,20.29
2022-08-17T02:19:22.165Z,20.29
2022-08-17T02:21:51.452Z,20.28
2022-08-17T02:25:00.720Z,20.25
2022-08-17T02:27:19.655Z,20.30
2022-08-17T02:29:46.891Z,20.36
2022-08-17T02:32:27.443Z,20.25
2022-08-17T02:34:57.121Z,20.50
2022-08-17T02:37:25.208Z,20.55
2022-08-17T02:39:52.377Z,20.64
2022-08-17T02:42:27.935Z,20.60
2022-08-17T02:44:55.232Z,20.89
2022-08-17T02:47:22.510Z,20.89
2022-08-17T02:49:55.577Z,20.83
2022-08-17T02:52:42.945Z,20.82
2022-08-17T02:55:18.905Z,20.60
2022-08-17T02:57:46.112Z,20.39
2022-08-17T03:00:21.466Z,20.12
2022-08-17T03:02:49.357Z,20.22
2022-08-17T03:05:19.246Z,20.33
2022-08-17T03:07:46.578Z,20.08
2022-08-17T03:10:14.868Z,20.16
2022-08-17T03:12:43.484Z,20.12
2022-08-17T03:15:14.334Z,20.17
2022-08-17T03:17:41.953Z,19.99
2022-08-17T03:20:10.317Z,20.29
2022-08-17T03:22:48.096Z,20.20
2022-08-17T03:25:28.237Z,20.21
2022-08-17T03:27:56.876Z,20.20
2022-08-17T03:30:26.102Z,20.21
2022-08-17T03:32:57.083Z,20.18
2022-08-17T03:35:27.622Z,20.41
2022-08-17T03:38:00.062Z,20.54
2022-08-17T03:40:34.487Z,20.56
2022-08-17T03:43:16.401Z,20.50
2022-08-17T03:46:02.207Z,20.58
2022-08-17T03:48:47.628Z,20.69
2022-08-17T03:51:39.280Z,20.88
2022-08-17T03:54:25.829Z,20.71
2022-08-17T03:57:06.067Z,20.88
2022-08-17T03:59:34.507Z,20.84
2022-08-17T04:02:24.562Z,21.05
2022-08-17T04:04:52.602Z,20.94
2022-08-17T04:07:21.789Z,20.83
2022-08-17T04:09:50.199Z,20.67
2022-08-17T04:12:20.263Z,20.85
2022-08-17T04:14:53.426Z,21.11
2022-08-17T04:17:27.701Z,21.26
2022-08-17T04:19:55.890Z,21.59
2022-08-17T04:22:30.846Z,21.91
2022-08-17T04:25:21.205Z,22.40
2022-08-17T04:27:51.580Z,22.75
2022-08-17T04:30:18.761Z,23.02
2022-08-17T04:33:09.189Z,23.12
2022-08-17T04:35:45.623Z,23.15
2022-08-17T04:38:17.428Z,23.21
2022-08-17T04:41:03.442Z,23.69
2022-08-17T04:43:32.671Z,23.75
2022-08-17T04:46:09.275Z,23.71
2022-08-17T04:48:39.964Z,23.62
2022-08-17T04:51:12.274Z,23.33
2022-08-17T04:53:44.549Z,23.24
2022-08-17T04:56:16.097Z,23.39
2022-08-17T04:58:50.875Z,23.89
2022-08-17T05:01:23.381Z,24.15
2022-08-17T05:03:57.123Z,24.48
2022-08-17T05:06:24.280Z,24.57
2022-08-17T05:08:52.252Z,24.66
2022-08-17T05:11:19.415Z,24.89
2022-08-17T05:13:46.661Z,24.84
2022-08-17T05:16:13.750Z,24.83
2022-08-17T05:18:40.911Z,24.80
2022-08-17T05:21:08.535Z,24.85
2022-08-17T05:23:42.626Z,24.95
2022-08-17T05:26:26.432Z,25.37
2022-08-17T05:28:57.245Z,25.47
2022-08-17T05:31:26.941Z,25.45
2022-08-17T05:33:54.062Z,25.41
2022-08-17T05:36:41.684Z,25.53
2022-08-17T05:39:08.634Z,25.58
2022-08-17T05:41:42.781Z,25.60
2022-08-17T05:44:09.978Z,25.81
2022-08-17T05:46:42.058Z,25.92
2022-08-17T05:49:09.757Z,26.07
2022-08-17T05:51:51.663Z,26.23
2022-08-17T05:54:44.653Z,26.39
2022-08-17T05:57:47.571Z,26.62
2022-08-17T06:00:41.855Z,27.10
2022-08-17T06:03:15.166Z,26.97
2022-08-17T06:06:16.221Z,27.36
2022-08-17T06:08:52.391Z,27.83
2022-08-17T06:11:26.888Z,28.37
2022-08-17T06:14:21.191Z,28.87
2022-08-17T06:16:59.004Z,29.34
2022-08-17T06:19:38.704Z,29.77
2022-08-17T06:22:08.746Z,29.76
2022-08-17T06:24:47.396Z,29.98
2022-08-17T06:27:31.820Z,29.60
2022-08-17T06:30:09.432Z,29.52
2022-08-17T06:32:38.775Z,29.05
2022-08-17T06:35:08.355Z,28.65
2022-08-17T06:37:48.845Z,28.55
2022-08-17T06:40:43.619Z,28.71
2022-08-17T06:43:34.191Z,28.61
2022-08-17T06:46:13.621Z,28.89
2022-08-17T06:48:58.880Z,29.10
2022-08-17T06:51:43.423Z,29.32
2022-08-17T06:54:13.228Z,30.10
2022-08-17T06:56:54.689Z,30.61
2022-08-17T06:59:53.177Z,30.93
2022-08-17T07:02:52.381Z,31.81
2022-08-17T07:05:22.458Z,31.92
2022-08-17T07:08:17.132Z,32.63
2022-08-17T07:10:53.024Z,32.93
2022-08-17T07:13:41.918Z,33.20
2022-08-17T07:16:32.167Z,33.77
2022-08-17T07:19:00.137Z,33.69
2022-08-17T07:21:47.949Z,33.39
2022-08-17T07:24:26.344Z,33.24
2022-08-17T07:27:10.946Z,33.70
2022-08-17T07:29:42.248Z,34.15
2022-08-17T07:32:11.371Z,34.07
2022-08-17T07:35:00.173Z,33.93
2022-08-17T07:37:27.688Z,33.78
2022-08-17T07:39:59.541Z,34.27
2022-08-17T07:42:46.578Z,34.29
2022-08-17T07:45:35.317Z,34.73
2022-08-17T07:48:20.289Z,34.40
2022-08-17T07:50:49.714Z,34.04
2022-08-17T07:53:28.953Z,33.68
2022-08-17T07:55:56.024Z,33.78
2022-08-17T07:58:24.485Z,33.76
2022-08-17T08:01:15.510Z,34.04
2022-08-17T08:03:46.328Z,33.99
2022-08-17T08:06:24.977Z,33.80
2022-08-17T08:08:55.053Z,33.78
2022-08-17T08:11:35.901Z,33.68
2022-08-17T08:14:33.701Z,33.60
2022-08-17T08:17:06.557Z,34.67
2022-08-17T08:19:36.551Z,34.97
2022-08-17T08:22:18.752Z,35.03
2022-08-17T08:25:01.283Z,34.86
2022-08-17T08:27:55.001Z,34.45
2022-08-17T08:30:22.353Z,34.28
2022-08-17T08:32:57.257Z,34.62
2022-08-17T08:35:43.530Z,34.36
2022-08-17T08:38:27.372Z,34.66
2022-08-17T08:41:24.583Z,34.75
2022-08-17T08:44:07.466Z,34.52
2022-08-17T08:47:11.076Z,34.19
2022-08-17T08:50:04.426Z,34.17
2022-08-17T08:52:41.616Z,34.55
2022-08-17T08:55:28.462Z,34.62
2022-08-17T08:58:02.849Z,34.74
2022-08-17T09:00:35.911Z,34.92
2022-08-17T09:03:52.237Z,34.85
2022-08-17T09:06:39.422Z,34.76
2022-08-17T09:09:25.932Z,35.37
2022-08-17T09:12:05.548Z,35.67
2022-08-17T09:14:47.047Z,36.51
2022-08-17T09:17:20.495Z,36.29
2022-08-17T09:19:57.905Z,35.74
2022-08-17T09:22:45.101Z,34.80
2022-08-17T09:25:32.767Z,35.31
2022-08-17T09:28:04.073Z,34.72
2022-08-17T09:30:50.900Z,34.73
2022-08-17T09:33:26.156Z,34.66
2022-08-17T09:36:02.965Z,34.54
2022-08-17T09:39:00.509Z,34.28
2022-08-17T09:41:54.251Z,34.42
2022-08-17T09:44:39.192Z,34.75
2022-08-17T09:47:15.651Z,35.36
2022-08-17T09:49:55.583Z,35.17
2022-08-17T09:52:27.569Z,35.46
2022-08-17T09:54:57.027Z,35.59
2022-08-17T09:57:31.603Z,35.80
2022-08-17T10:00:31.336Z,35.45
2022-08-17T10:03:36.758Z,35.39
2022-08-17T10:06:24.732Z,35.94
2022-08-17T10:08:56.917Z,37.02
2022-08-17T10:12:17.476Z,37.37
2022-08-17T10:14:59.949Z,36.92
2022-08-17T10:18:01.304Z,37.55
2022-08-17T10:20:36.490Z,37.55
2022-08-17T10:23:32.534Z,37.23
2022-08-17T10:26:13.093Z,37.78
2022-08-17T10:28:52.848Z,37.78
2022-08-17T10:31:34.661Z,37.13
2022-08-17T10:34:41.112Z,37.71
2022-08-17T10:37:20.397Z,38.43
2022-08-17T10:40:02.713Z,37.68
2022-08-17T10:42:54.770Z,37.56
2022-08-17T10:46:14.568Z,37.31
2022-08-17T10:49:16.892Z,37.38
2022-08-17T10:51:48.057Z,37.39
2022-08-17T10:54:58.256Z,37.54
2022-08-17T10:57:39.310Z,38.36
2022-08-17T11:00:09.972Z,38.70
2022-08-17T11:02:55.035Z,38.52
2022-08-17T11:05:50.460Z,38.04
2022-08-17T11:08:47.530Z,38.14
2022-08-17T11:11:50.043Z,37.95
2022-08-17T11:14:47.425Z,38.61
2022-08-17T11:17:41.765Z,38.95
2022-08-17T11:20:23.995Z,39.40
2022-08-17T11:23:10.226Z,39.49
2022-08-17T11:25:47.306Z,39.91
2022-08-17T11:28:19.417Z,39.39
2022-08-17T11:30:53.538Z,38.92
2022-08-17T11:33:30.427Z,39.00
2022-08-17T11:36:12.471Z,39.22
2022-08-17T11:39:12.759Z,39.25
2022-08-17T11:42:26.436Z,39.15
2022-08-17T11:45:31.693Z,39.04
2022-08-17T11:48:53.093Z,38.96
2022-08-17T11:51:37.042Z,39.33
2022-08-17T11:54:34.723Z,39.85
2022-08-17T11:57:27.090Z,40.48
2022-08-17T12:00:11.146Z,40.76
2022-08-17T12:02:47.391Z,41.09
2022-08-17T12:05:22.156Z,41.15
2022-08-17T12:08:11.913Z,41.45
2022-08-17T12:10:59.854Z,41.56
2022-08-17T12:13:39.524Z,41.66
2022-08-17T12:16:17.700Z,41.20
2022-08-17T12:19:03.480Z,40.67
2022-08-17T12:21:54.983Z,40.00
2022-08-17T12:24:47.255Z,39.09
2022-08-17T12:28:06.321Z,38.43
2022-08-17T12:33:49.727Z,38.51
2022-08-17T12:36:31.982Z,38.62
2022-08-17T12:39:13.081Z,38.71
2022-08-17T12:41:47.454Z,38.86
2022-08-17T12:44:28.698Z,39.17
2022-08-17T12:47:22.302Z,38.77
2022-08-17T12:49:53.575Z,38.08
2022-08-17T12:52:26.113Z,38.02
2022-08-17T12:54:56.170Z,38.16
2022-08-17T12:57:34.246Z,38.76
2022-08-17T13:00:32.101Z,38.74
2022-08-17T13:03:12.555Z,38.39
2022-08-17T13:05:55.927Z,38.80
2022-08-17T13:08:40.112Z,38.63
2022-08-17T13:11:10.663Z,38.91
2022-08-17T13:13:41.237Z,39.48
2022-08-17T13:16:18.109Z,39.47
2022-08-17T13:19:06.224Z,39.18
2022-08-17T13:21:35.341Z,39.04
2022-08-17T13:24:11.156Z,39.28
2022-08-17T13:26:43.199Z,39.30
2022-08-17T13:29:28.479Z,39.47
2022-08-17T13:32:14.410Z,39.04
2022-08-17T13:35:12.115Z,39.44
2022-08-17T13:37:36.951Z,40.22
2022-08-17T13:40:10.035Z,40.58
2022-08-17T13:42:51.583Z,40.83
2022-08-17T13:45:36.353Z,40.13
2022-08-17T13:48:10.894Z,40.39
2022-08-17T13:50:59.703Z,40.89
2022-08-17T13:53:51.004Z,40.94
2022-08-17T13:56:39.557Z,41.14
2022-08-17T13:59:12.546Z,40.93
2022-08-17T14:01:42.046Z,40.64
2022-08-17T14:04:15.948Z,40.23
2022-08-17T14:07:00.805Z,40.07
2022-08-17T14:09:50.204Z,39.81
2022-08-17T14:12:25.197Z,40.00
2022-08-17T14:14:53.169Z,39.84
2022-08-17T14:17:20.406Z,39.89
2022-08-17T14:19:48.194Z,39.25
2022-08-17T14:22:19.872Z,39.38
2022-08-17T14:24:47.068Z,38.67
2022-08-17T14:27:14.063Z,38.07
2022-08-17T14:29:41.366Z,37.45
2022-08-17T14:32:20.470Z,37.51
2022-08-17T14:34:49.680Z,37.43
2022-08-17T14:37:18.813Z,37.30
2022-08-17T14:39:46.286Z,37.18
2022-08-17T14:42:15.615Z,36.73
2022-08-17T14:44:42.699Z,36.48
2022-08-17T14:47:14.967Z,36.03
2022-08-17T14:49:42.443Z,35.49
2022-08-17T14:52:12.520Z,34.38
2022-08-17T14:54:45.201Z,33.47
2022-08-17T14:57:26.188Z,32.73
2022-08-17T15:00:00.640Z,31.99
2022-08-17T15:02:30.456Z,31.65
2022-08-17T15:05:05.469Z,31.21
2022-08-17T15:07:32.653Z,30.80
2022-08-17T15:10:01.435Z,30.69
2022-08-17T15:12:34.039Z,30.44
2022-08-17T15:15:05.098Z,30.30
2022-08-17T15:17:43.937Z,30.05
2022-08-17T15:20:16.177Z,29.73
2022-08-17T15:22:45.376Z,29.62
2022-08-17T15:25:13.313Z,29.43
2022-08-17T15:27:40.519Z,29.28
2022-08-17T15:30:09.540Z,29.24
2022-08-17T15:32:40.736Z,29.03
2022-08-17T15:35:11.919Z,29.06
2022-08-17T15:37:41.071Z,28.92
2022-08-17T15:40:10.020Z,28.40
2022-08-17T15:42:41.114Z,28.72
2022-08-17T15:45:12.273Z,28.62
2022-08-17T15:47:40.457Z,28.64
2022-08-17T15:50:08.839Z,28.62
2022-08-17T15:52:40.280Z,28.60
2022-08-17T15:55:12.377Z,28.54
2022-08-17T15:57:40.472Z,28.61
2022-08-17T16:00:09.550Z,28.50
2022-08-17T16:03:46.006Z,28.60
2022-08-17T16:05:30.231Z,28.53
2022-08-17T16:07:59.859Z,28.56
2022-08-17T16:10:35.386Z,28.47
2022-08-17T16:13:04.337Z,28.38
2022-08-17T16:15:32.245Z,28.44
2022-08-17T16:17:59.721Z,28.40
2022-08-17T16:20:27.048Z,28.32
2022-08-17T16:22:54.963Z,28.22
2022-08-17T16:25:52.182Z,28.13
2022-08-17T16:28:16.411Z,28.09
2022-08-17T17:58:26.624Z,25.50
2022-08-17T18:01:30.944Z,25.54
2022-08-17T18:04:21.137Z,25.96
2022-08-17T18:07:01.887Z,26.91
2022-08-17T18:09:36.851Z,27.95
2022-08-17T18:12:33.360Z,28.67
2022-08-17T18:15:21.672Z,29.13
2022-08-17T18:18:22.258Z,29.70
2022-08-17T18:20:56.186Z,30.14
2022-08-17T18:23:28.180Z,30.22
2022-08-17T18:25:56.746Z,30.41
2022-08-17T18:28:25.391Z,30.46
2022-08-17T18:31:07.490Z,30.34
2022-08-17T18:33:36.034Z,30.28
2022-08-17T18:36:03.872Z,30.20
2022-08-17T18:38:38.726Z,30.06
2022-08-17T18:41:25.435Z,30.05
2022-08-17T18:44:01.853Z,30.26
2022-08-17T18:46:35.314Z,30.10
2022-08-17T18:49:26.002Z,29.77
2022-08-17T18:52:11.248Z,29.66
2022-08-17T18:54:38.871Z,29.60
2022-08-17T18:57:07.807Z,29.28
2022-08-17T18:59:45.653Z,29.10
2022-08-17T19:02:20.647Z,28.77
2022-08-17T19:05:01.877Z,28.35
2022-08-17T19:07:42.241Z,28.16
2022-08-17T19:10:20.351Z,28.17
2022-08-17T19:12:50.175Z,28.11
2022-08-17T19:15:43.707Z,28.38
2022-08-17T19:18:35.927Z,27.98
2022-08-17T19:21:21.298Z,28.20
2022-08-17T19:23:58.887Z,27.86
2022-08-17T19:26:53.588Z,28.05
2022-08-17T19:29:22.413Z,27.92
2022-08-17T19:31:50.225Z,27.97
2022-08-17T19:34:33.063Z,27.73
2022-08-17T19:37:07.015Z,27.13
2022-08-17T19:39:55.989Z,26.62
2022-08-17T19:42:49.884Z,26.29
2022-08-17T19:45:45.908Z,26.14
2022-08-17T19:48:51.185Z,26.07
2022-08-17T19:51:44.794Z,25.89
2022-08-17T19:54:52.510Z,25.90
2022-08-17T19:57:38.253Z,25.80
2022-08-17T20:00:13.383Z,25.90
2022-08-17T20:03:05.614Z,25.77
2022-08-17T20:06:11.664Z,25.65
2022-08-17T20:08:56.945Z,25.56
2022-08-17T20:12:02.446Z,25.49
2022-08-17T20:14:59.255Z,25.25
2022-08-17T20:17:35.088Z,25.32
2022-08-17T20:20:20.429Z,25.22
2022-08-17T20:22:54.183Z,25.06
2022-08-17T20:25:39.703Z,24.97
2022-08-17T20:28:19.580Z,24.88
2022-08-17T20:30:46.735Z,24.84
2022-08-17T20:33:47.252Z,24.82
2022-08-17T20:36:20.356Z,24.91
2022-08-17T20:38:59.181Z,24.90
2022-08-17T20:41:28.620Z,24.69
2022-08-17T20:43:55.833Z,24.80
2022-08-17T20:46:38.588Z,24.92
2022-08-17T20:49:08.760Z,25.06
2022-08-17T20:52:01.264Z,25.06
2022-08-17T20:54:53.341Z,25.05
2022-08-17T20:57:32.963Z,24.87
2022-08-17T21:00:04.365Z,24.63
2022-08-17T21:02:32.906Z,24.55
2022-08-17T21:05:07.307Z,24.60
2022-08-17T21:07:51.126Z,24.54
2022-08-17T21:10:24.185Z,24.67
2022-08-17T21:12:51.508Z,24.75
2022-08-17T21:15:36.963Z,24.89
2022-08-17T21:18:23.441Z,24.87
2022-08-17T21:21:14.059Z,24.79
2022-08-17T21:24:02.120Z,24.84
2022-08-17T21:26:57.158Z,24.84
2022-08-17T21:29:33.932Z,24.95
2022-08-17T21:32:05.319Z,25.03
2022-08-17T21:34:43.806Z,24.92
2022-08-17T21:37:20.842Z,24.75
2022-08-17T21:40:18.828Z,24.51
2022-08-17T21:42:55.601Z,24.59
2022-08-17T21:45:30.166Z,24.61
2022-08-17T21:48:12.816Z,24.55
2022-08-17T21:50:44.236Z,24.40
2022-08-17T21:53:28.116Z,24.32
2022-08-17T21:55:57.924Z,24.17
2022-08-17T21:58:40.376Z,24.12
2022-08-17T22:01:13.465Z,24.07
2022-08-17T22:03:41.342Z,24.01
2022-08-17T22:06:24.289Z,23.96
2022-08-17T22:09:09.276Z,23.94
2022-08-17T22:12:03.489Z,23.95
2022-08-17T22:14:53.095Z,24.01
2022-08-17T22:17:35.604Z,24.08
2022-08-17T22:20:08.445Z,24.02
2022-08-17T22:23:18.201Z,23.94
2022-08-17T22:26:05.306Z,23.94
2022-08-17T22:28:40.843Z,23.76
2022-08-17T22:31:10.643Z,23.77
2022-08-17T22:33:50.734Z,23.83
2022-08-17T22:36:28.889Z,23.80
2022-08-17T22:39:02.578Z,23.88
2022-08-17T22:41:32.591Z,24.06
2022-08-17T22:44:18.478Z,23.99
2022-08-17T22:47:11.912Z,23.57
2022-08-17T22:49:54.199Z,23.26
2022-08-17T22:52:32.597Z,23.14
2022-08-17T22:55:32.783Z,23.04
2022-08-17T22:58:19.345Z,22.99
2022-08-17T23:00:49.221Z,22.80
2022-08-17T23:03:20.064Z,22.59
2022-08-17T23:06:03.556Z,22.37
2022-08-17T23:08:31.567Z,22.38
2022-08-17T23:11:00.456Z,22.56
2022-08-17T23:13:28.282Z,22.90
2022-08-17T23:15:55.450Z,22.88
2022-08-17T23:18:23.585Z,22.93
2022-08-17T23:20:50.870Z,23.07
2022-08-17T23:23:23.440Z,23.23
2022-08-17T23:25:51.268Z,23.29
2022-08-17T23:28:18.463Z,23.24
2022-08-17T23:30:48.660Z,23.30
2022-08-17T23:33:31.004Z,23.39
2022-08-17T23:35:58.898Z,23.42
2022-08-17T23:38:27.484Z,23.35
2022-08-17T23:40:55.474Z,23.31
2022-08-17T23:43:24.115Z,23.50
2022-08-17T23:45:54.268Z,23.48
2022-08-17T23:48:28.533Z,23.33
2022-08-17T23:51:04.261Z,22.95
2022-08-17T23:53:34.690Z,22.67
2022-08-17T23:56:09.756Z,22.47
2022-08-17T23:58:45.027Z,22.29
